KFEW/FEW METAR and TAF weather

Enter ICAO airport designator
Station Type Date Time Source
KFEW METAR 2019/11/14 03:58 UTC NOAA

KFEW 140358Z 00000KT 10SM -SN SCT034 OVC065 01/M03 A3019 RMK AO2A RAB33E35RAB36E38SNB50 SLP222 T00071026 $


Station Type Date Time Source
KFEW Decoded METAR 2019/11/14 03:58 UTC NOAA

Station name not available
Nov 13, 2019 - 10:58 PM EST / 2019.11.14 0358 UTC
Wind: Calm:0
Visibility: 10 mile(s):0
Sky conditions: overcast
Weather: light snow
Temperature: 33.3 F (0.7 C)
Dew Point: 27.3 F (-2.6 C)
Relative Humidity: 78%
Pressure (altimeter): 30.19 in. Hg (1022 hPa)
ob: KFEW 140358Z 00000KT 10SM -SN SCT034 OVC065 01/M03 A3019 RMK AO2A RAB33E35RAB36E38SNB50 SLP222 T00071026
cycle: 4

Station Type Date Time Source
KFEW TAF UTC NOAA

Error!

Example: see airport list